Terminal Aerodrome Forecast
Issued by NWS Cleveland, OH

Home | Current Version | Previous Version | Graphics & Text | Print | Product List | Glossary On
Versions: 1 2 3 4 5 6 7 8 9 10 11 12 13 14 15 16 17 18 19 20 21 22 23 24 25
000
FTUS41 KCLE 250300 AAA
TAFCAK
TAF AMD
KCAK 250313Z 2503/2524 25010KT 4SM BR SCT008 SCT020 OVC040
      TEMPO 2503/2506 -RASN BKN020
     FM250700 26006KT 2SM BR VCSH OVC008
     FM251400 VRB04KT 1 1/2SM -SN BR OVC005
     FM251600 03005KT 2SM -SN OVC007
     FM252100 05005KT 1SM -SN OVC004=

USA.gov is the U.S. government's official web portal to all federal, state and local government web resources and services.